createdAt,value
2022-12-31T00:00:57.959Z,966.62
2022-12-31T00:01:57.868Z,966.75
2022-12-31T00:02:57.827Z,966.69
2022-12-31T00:03:57.830Z,966.61
2022-12-31T00:04:57.792Z,966.49
2022-12-31T00:05:57.583Z,966.61
2022-12-31T00:06:57.794Z,966.50
2022-12-31T00:07:57.493Z,966.50
2022-12-31T00:08:57.450Z,966.47
2022-12-31T00:09:57.403Z,966.47
2022-12-31T00:10:57.624Z,966.54
2022-12-31T00:11:57.308Z,966.58
2022-12-31T00:12:57.639Z,966.63
2022-12-31T00:13:57.219Z,966.50
2022-12-31T00:14:57.183Z,966.57
2022-12-31T00:15:57.248Z,966.56
2022-12-31T00:16:57.134Z,966.48
2022-12-31T00:17:57.264Z,966.56
2022-12-31T00:18:56.989Z,966.51
2022-12-31T00:19:58.104Z,966.48
2022-12-31T00:20:56.902Z,966.53
2022-12-31T00:21:57.092Z,966.58
2022-12-31T00:22:56.808Z,966.44
2022-12-31T00:23:57.100Z,966.50
2022-12-31T00:24:56.715Z,966.53
2022-12-31T00:25:56.673Z,966.62
2022-12-31T00:26:56.627Z,966.50
2022-12-31T00:27:56.723Z,966.48
2022-12-31T00:28:56.548Z,966.49
2022-12-31T00:30:02.459Z,966.56
2022-12-31T00:30:56.506Z,966.52
2022-12-31T00:31:56.419Z,966.59
2022-12-31T00:32:56.357Z,966.44
2022-12-31T00:33:56.561Z,966.47
2022-12-31T00:34:56.263Z,966.49
2022-12-31T00:35:57.594Z,966.52
2022-12-31T00:36:56.183Z,966.45
2022-12-31T00:37:56.133Z,966.41
2022-12-31T00:38:56.092Z,966.42
2022-12-31T00:39:56.195Z,966.45
2022-12-31T00:40:55.995Z,966.35
2022-12-31T00:41:56.209Z,966.32
2022-12-31T00:42:55.908Z,966.37
2022-12-31T00:43:56.074Z,966.36
2022-12-31T00:44:55.813Z,966.48
2022-12-31T00:45:56.067Z,966.36
2022-12-31T00:46:55.719Z,966.40
2022-12-31T00:47:55.753Z,966.44
2022-12-31T00:48:55.665Z,966.36
2022-12-31T00:49:55.775Z,966.47
2022-12-31T00:50:55.544Z,966.39
2022-12-31T00:51:55.725Z,966.41
2022-12-31T00:52:55.447Z,966.39
2022-12-31T00:53:55.703Z,966.33
2022-12-31T00:54:56.514Z,966.35
2022-12-31T00:55:57.591Z,966.34
2022-12-31T00:56:55.499Z,966.31
2022-12-31T00:57:55.224Z,966.25
2022-12-31T00:58:55.314Z,966.27
2022-12-31T00:59:55.132Z,966.30
2022-12-31T01:00:55.257Z,966.27
2022-12-31T01:01:55.475Z,966.37
2022-12-31T01:02:55.090Z,966.25
2022-12-31T01:03:55.154Z,966.35
2022-12-31T01:04:54.904Z,966.41
2022-12-31T01:05:55.172Z,966.50
2022-12-31T01:06:54.810Z,966.37
2022-12-31T01:07:55.170Z,966.43
2022-12-31T01:08:54.728Z,966.40
2022-12-31T01:09:54.978Z,966.37
2022-12-31T01:10:54.648Z,966.39
2022-12-31T01:11:54.785Z,966.24
2022-12-31T01:12:54.539Z,966.43
2022-12-31T01:13:54.805Z,966.50
2022-12-31T01:14:54.449Z,966.46
2022-12-31T01:15:54.658Z,966.48
2022-12-31T01:16:54.680Z,966.47
2022-12-31T01:17:54.326Z,966.47
2022-12-31T01:18:54.273Z,966.46
2022-12-31T01:19:54.438Z,966.48
2022-12-31T01:20:54.178Z,966.57
2022-12-31T01:21:54.450Z,966.60
2022-12-31T01:22:54.116Z,966.58
2022-12-31T01:23:54.048Z,966.62
2022-12-31T01:24:53.997Z,966.69
2022-12-31T01:25:54.281Z,966.55
2022-12-31T01:26:53.907Z,966.55
2022-12-31T01:27:54.087Z,966.60
2022-12-31T01:28:54.141Z,966.55
2022-12-31T01:29:53.773Z,966.61
2022-12-31T01:30:53.769Z,966.57
2022-12-31T01:31:53.907Z,966.60
2022-12-31T01:32:53.645Z,966.55
2022-12-31T01:33:53.723Z,966.55
2022-12-31T01:34:53.560Z,966.53
2022-12-31T01:35:53.529Z,966.59
2022-12-31T01:36:53.739Z,966.57
2022-12-31T01:37:53.419Z,966.57
2022-12-31T01:38:53.567Z,966.60
2022-12-31T01:39:53.329Z,966.61
2022-12-31T01:40:53.525Z,966.55
2022-12-31T01:41:53.261Z,966.83
2022-12-31T01:42:53.274Z,966.60
2022-12-31T01:43:53.151Z,966.63
2022-12-31T01:44:53.301Z,966.63
2022-12-31T01:45:53.105Z,966.64
2022-12-31T01:46:53.005Z,966.60
2022-12-31T01:47:53.155Z,966.61
2022-12-31T01:48:53.117Z,966.45
2022-12-31T01:49:52.875Z,966.41
2022-12-31T01:50:52.923Z,966.46
2022-12-31T01:51:52.788Z,966.59
2022-12-31T01:52:52.738Z,966.57
2022-12-31T01:53:52.707Z,966.65
2022-12-31T01:54:52.759Z,966.64
2022-12-31T01:55:52.606Z,966.56
2022-12-31T01:56:52.764Z,966.48
2022-12-31T01:57:52.521Z,966.49
2022-12-31T01:58:52.474Z,966.47
2022-12-31T01:59:52.786Z,966.50
2022-12-31T02:00:52.382Z,966.45
2022-12-31T02:01:52.448Z,966.41
2022-12-31T02:02:52.468Z,966.38
2022-12-31T02:03:52.404Z,966.38
2022-12-31T02:04:52.204Z,966.32
2022-12-31T02:05:52.215Z,966.36
2022-12-31T02:06:52.110Z,966.39
2022-12-31T02:07:52.226Z,966.40
2022-12-31T02:08:52.030Z,966.56
2022-12-31T02:09:51.975Z,966.54
2022-12-31T02:10:51.935Z,966.50
2022-12-31T02:11:52.255Z,966.54
2022-12-31T02:12:51.845Z,966.45
2022-12-31T02:13:58.015Z,966.46
2022-12-31T02:14:51.759Z,966.50
2022-12-31T02:15:51.781Z,966.61
2022-12-31T02:16:51.664Z,966.63
2022-12-31T02:17:51.686Z,966.53
2022-12-31T02:18:51.577Z,966.52
2022-12-31T02:19:51.905Z,966.80
2022-12-31T02:20:51.492Z,966.38
2022-12-31T02:21:51.441Z,966.61
2022-12-31T02:22:51.519Z,966.49
2022-12-31T02:23:51.348Z,966.57
2022-12-31T02:24:51.535Z,966.45
2022-12-31T02:25:51.286Z,966.57
2022-12-31T02:26:51.343Z,966.39
2022-12-31T02:27:51.194Z,966.39
2022-12-31T02:28:51.359Z,966.43
2022-12-31T02:29:51.082Z,966.51
2022-12-31T02:30:51.232Z,966.34
2022-12-31T02:31:51.233Z,966.31
2022-12-31T02:32:50.965Z,966.40
2022-12-31T02:33:50.912Z,966.47
2022-12-31T02:34:50.994Z,966.51
2022-12-31T02:35:50.830Z,966.51
2022-12-31T02:36:50.808Z,966.63
2022-12-31T02:37:50.723Z,966.53
2022-12-31T02:38:50.875Z,966.46
2022-12-31T02:39:50.644Z,966.54
2022-12-31T02:40:50.627Z,966.41
2022-12-31T02:41:50.558Z,966.38
2022-12-31T02:42:55.330Z,966.49
2022-12-31T02:43:50.451Z,966.36
2022-12-31T02:44:50.434Z,966.47
2022-12-31T02:45:50.463Z,966.37
2022-12-31T02:46:50.381Z,966.33
2022-12-31T02:47:50.480Z,966.44
2022-12-31T02:48:50.230Z,966.47
2022-12-31T02:49:50.383Z,966.56
2022-12-31T02:50:50.242Z,966.57
2022-12-31T02:51:50.195Z,966.55
2022-12-31T02:52:50.063Z,966.68
2022-12-31T02:53:50.220Z,966.54
2022-12-31T02:54:49.968Z,966.64
2022-12-31T02:55:49.920Z,966.64
2022-12-31T02:56:49.899Z,966.60
2022-12-31T02:57:50.041Z,966.59
2022-12-31T02:58:49.784Z,966.66
2022-12-31T02:59:49.856Z,966.74
2022-12-31T03:00:49.792Z,966.60
2022-12-31T03:01:49.750Z,966.54
2022-12-31T03:02:49.912Z,966.57
2022-12-31T03:03:49.566Z,966.64
2022-12-31T03:04:49.680Z,966.73
2022-12-31T03:05:49.490Z,966.74
2022-12-31T03:06:49.485Z,966.66
2022-12-31T03:07:49.405Z,966.71
2022-12-31T03:08:49.341Z,966.80
2022-12-31T03:09:49.514Z,966.74
2022-12-31T03:10:49.259Z,966.77
2022-12-31T03:11:49.322Z,966.80
2022-12-31T03:12:49.166Z,966.82
2022-12-31T03:13:49.177Z,966.86
2022-12-31T03:14:49.141Z,966.86
2022-12-31T03:15:49.059Z,966.84
2022-12-31T03:16:49.156Z,966.87
2022-12-31T03:17:48.931Z,966.87
2022-12-31T03:18:48.893Z,966.93
2022-12-31T03:19:48.867Z,966.88
2022-12-31T03:20:48.888Z,966.87
2022-12-31T03:21:48.755Z,966.89
2022-12-31T03:22:48.783Z,966.89
2022-12-31T03:23:48.671Z,966.89
2022-12-31T03:24:48.629Z,966.72
2022-12-31T03:25:48.647Z,966.73
2022-12-31T03:26:48.654Z,966.73
2022-12-31T03:27:48.502Z,966.84
2022-12-31T03:28:48.640Z,966.82
2022-12-31T03:29:48.401Z,966.90
2022-12-31T03:30:48.391Z,966.82
2022-12-31T03:31:48.434Z,966.90
2022-12-31T03:32:48.278Z,966.83
2022-12-31T03:33:48.436Z,966.74
2022-12-31T03:34:48.194Z,966.77
2022-12-31T03:35:48.276Z,966.77
2022-12-31T03:36:48.336Z,966.82
2022-12-31T03:37:48.282Z,966.83
2022-12-31T03:38:52.563Z,966.97
2022-12-31T03:39:48.090Z,966.86
2022-12-31T03:40:47.923Z,966.80
2022-12-31T03:41:48.113Z,966.86
2022-12-31T03:42:47.822Z,966.87
2022-12-31T03:43:48.126Z,966.94
2022-12-31T03:44:47.725Z,966.86
2022-12-31T03:45:47.974Z,966.85
2022-12-31T03:46:47.639Z,966.92
2022-12-31T03:47:47.594Z,966.97
2022-12-31T03:48:47.564Z,966.91
2022-12-31T03:49:47.550Z,967.00
2022-12-31T03:50:47.461Z,966.86
2022-12-31T03:51:47.566Z,966.79
2022-12-31T03:52:47.370Z,966.85
2022-12-31T03:53:47.328Z,966.89
2022-12-31T03:54:47.436Z,966.89
2022-12-31T03:55:49.448Z,966.89
2022-12-31T03:56:49.443Z,966.93
2022-12-31T03:57:47.207Z,967.03
2022-12-31T03:58:47.106Z,966.90
2022-12-31T03:59:47.055Z,967.14
2022-12-31T04:00:47.265Z,966.96
2022-12-31T04:01:47.073Z,966.91
2022-12-31T04:02:47.102Z,967.07
2022-12-31T04:03:46.879Z,966.95
2022-12-31T04:04:47.053Z,966.97
2022-12-31T04:05:46.786Z,966.96
2022-12-31T04:06:47.062Z,967.10
2022-12-31T04:07:46.710Z,966.98
2022-12-31T04:08:46.870Z,966.91
2022-12-31T04:09:46.613Z,966.90
2022-12-31T04:10:46.566Z,966.84
2022-12-31T04:11:46.516Z,966.90
2022-12-31T04:12:46.695Z,966.88
2022-12-31T04:13:46.433Z,967.00
2022-12-31T04:14:46.511Z,966.93
2022-12-31T04:15:46.338Z,966.90
2022-12-31T04:16:46.320Z,966.99
2022-12-31T04:17:46.248Z,966.95
2022-12-31T04:18:46.537Z,966.97
2022-12-31T04:19:46.156Z,966.93
2022-12-31T04:20:46.341Z,967.04
2022-12-31T04:21:46.072Z,966.79
2022-12-31T04:22:46.043Z,966.83
2022-12-31T04:23:46.158Z,966.89
2022-12-31T04:24:45.959Z,966.94
2022-12-31T04:25:45.968Z,966.89
2022-12-31T04:26:45.844Z,966.92
2022-12-31T04:27:45.985Z,966.92
2022-12-31T04:28:45.756Z,966.91
2022-12-31T04:29:45.794Z,966.97
2022-12-31T04:30:45.864Z,966.93
2022-12-31T04:31:45.835Z,967.09
2022-12-31T04:32:45.587Z,966.93
2022-12-31T04:33:45.539Z,967.01
2022-12-31T04:34:45.491Z,967.00
2022-12-31T04:35:45.641Z,967.09
2022-12-31T04:36:45.435Z,967.08
2022-12-31T04:37:45.442Z,967.09
2022-12-31T04:38:45.307Z,967.05
2022-12-31T04:39:45.273Z,967.07
2022-12-31T04:40:45.217Z,966.96
2022-12-31T04:41:45.270Z,966.97
2022-12-31T04:42:45.332Z,966.95
2022-12-31T04:43:45.297Z,966.99
2022-12-31T04:44:45.054Z,966.96
2022-12-31T04:45:45.039Z,966.91
2022-12-31T04:46:45.100Z,966.88
2022-12-31T04:47:44.912Z,966.94
2022-12-31T04:48:45.116Z,966.99
2022-12-31T04:49:44.827Z,967.07
2022-12-31T04:50:44.927Z,967.08
2022-12-31T04:51:44.724Z,966.93
2022-12-31T04:52:44.947Z,967.05
2022-12-31T04:53:44.641Z,967.03
2022-12-31T04:54:46.007Z,966.96
2022-12-31T04:55:44.547Z,967.01
2022-12-31T04:56:44.501Z,966.98
2022-12-31T04:57:44.459Z,967.12
2022-12-31T04:58:44.584Z,967.13
2022-12-31T04:59:44.388Z,967.09
2022-12-31T05:00:44.381Z,967.11
2022-12-31T05:01:44.372Z,967.16
2022-12-31T05:02:44.373Z,967.14
2022-12-31T05:03:44.191Z,967.07
2022-12-31T05:04:44.214Z,967.05
2022-12-31T05:05:44.266Z,967.15
2022-12-31T05:06:44.227Z,967.18
2022-12-31T05:07:44.018Z,967.10
2022-12-31T05:08:43.967Z,967.16
2022-12-31T05:09:44.046Z,967.09
2022-12-31T05:10:43.875Z,967.04
2022-12-31T05:11:44.055Z,967.02
2022-12-31T05:12:43.912Z,967.02
2022-12-31T05:13:43.869Z,967.05
2022-12-31T05:14:43.702Z,967.05
2022-12-31T05:15:43.884Z,967.03
2022-12-31T05:16:43.693Z,967.16
2022-12-31T05:17:43.700Z,966.99
2022-12-31T05:18:43.555Z,967.01
2022-12-31T05:19:43.475Z,967.01
2022-12-31T05:20:43.434Z,966.97
2022-12-31T05:21:43.534Z,967.00
2022-12-31T05:22:43.343Z,967.03
2022-12-31T05:23:43.532Z,967.00
2022-12-31T05:24:43.271Z,967.00
2022-12-31T05:25:43.205Z,967.02
2022-12-31T05:26:43.163Z,967.04
2022-12-31T05:27:43.357Z,967.04
2022-12-31T05:28:43.079Z,967.08
2022-12-31T05:29:43.166Z,967.15
2022-12-31T05:30:43.251Z,967.05
2022-12-31T05:31:42.940Z,967.09
2022-12-31T05:32:42.904Z,967.11
2022-12-31T05:33:43.001Z,967.12
2022-12-31T05:34:42.808Z,967.07
2022-12-31T05:35:43.000Z,967.15
2022-12-31T05:36:42.731Z,967.11
2022-12-31T05:37:42.670Z,967.09
2022-12-31T05:38:42.818Z,967.06
2022-12-31T05:39:42.576Z,967.08
2022-12-31T05:40:42.630Z,967.03
2022-12-31T05:41:42.489Z,967.07
2022-12-31T05:42:42.847Z,967.02
2022-12-31T05:43:42.402Z,967.00
2022-12-31T05:44:42.462Z,967.07
2022-12-31T05:45:42.335Z,967.00
2022-12-31T05:46:42.476Z,967.09
2022-12-31T05:47:42.236Z,967.03
2022-12-31T05:48:42.210Z,967.08
2022-12-31T05:49:42.141Z,967.17
2022-12-31T05:50:42.295Z,967.14
2022-12-31T05:51:42.041Z,967.22
2022-12-31T05:52:47.274Z,967.21
2022-12-31T05:53:41.950Z,967.17
2022-12-31T05:54:41.912Z,967.24
2022-12-31T05:55:41.864Z,967.30
2022-12-31T05:56:41.924Z,967.14
2022-12-31T05:57:41.790Z,967.14
2022-12-31T05:58:41.950Z,967.19
2022-12-31T05:59:41.693Z,967.24
2022-12-31T06:03:48.088Z,967.30
2022-12-31T06:04:47.943Z,967.28
2022-12-31T06:05:47.895Z,967.34
2022-12-31T06:06:47.848Z,967.28
2022-12-31T06:07:47.805Z,967.20
2022-12-31T06:08:47.757Z,967.18
2022-12-31T06:09:47.735Z,967.24
2022-12-31T06:10:47.668Z,967.15
2022-12-31T06:11:47.636Z,967.19
2022-12-31T06:12:47.578Z,967.26
2022-12-31T06:13:47.530Z,967.27
2022-12-31T06:14:47.484Z,967.28
2022-12-31T06:15:47.548Z,967.33
2022-12-31T06:16:47.399Z,967.33
2022-12-31T06:17:47.349Z,967.38
2022-12-31T06:18:47.314Z,967.36
2022-12-31T06:19:47.279Z,967.39
2022-12-31T06:20:47.214Z,967.48
2022-12-31T06:21:47.184Z,967.41
2022-12-31T06:22:47.121Z,967.44
2022-12-31T06:23:47.081Z,967.44
2022-12-31T06:24:47.043Z,967.47
2022-12-31T06:25:46.989Z,967.46
2022-12-31T06:26:46.959Z,967.44
2022-12-31T06:27:46.901Z,967.47
2022-12-31T06:28:46.851Z,967.48
2022-12-31T06:29:46.811Z,967.52
2022-12-31T06:30:46.778Z,967.52
2022-12-31T06:31:46.743Z,967.51
2022-12-31T06:32:46.681Z,967.53
2022-12-31T06:33:46.634Z,967.58
2022-12-31T06:34:46.584Z,967.51
2022-12-31T06:35:46.545Z,967.48
2022-12-31T06:36:46.498Z,967.49
2022-12-31T06:37:46.464Z,967.41
2022-12-31T06:38:46.423Z,967.46
2022-12-31T06:39:46.362Z,967.43
2022-12-31T06:40:46.315Z,967.45
2022-12-31T06:41:46.272Z,967.44
2022-12-31T06:42:46.225Z,967.40
2022-12-31T06:43:46.187Z,967.43
2022-12-31T06:44:46.169Z,967.44
2022-12-31T06:45:46.093Z,967.50
2022-12-31T06:46:46.077Z,967.46
2022-12-31T06:47:45.999Z,967.47
2022-12-31T06:48:45.956Z,967.49
2022-12-31T06:49:45.908Z,967.43
2022-12-31T06:50:45.883Z,967.50
2022-12-31T06:51:45.843Z,967.44
2022-12-31T06:52:45.777Z,967.48
2022-12-31T06:53:45.742Z,967.49
2022-12-31T06:54:45.692Z,967.58
2022-12-31T06:55:45.642Z,967.46
2022-12-31T06:56:45.618Z,967.45
2022-12-31T06:57:45.550Z,967.49
2022-12-31T06:58:45.507Z,967.51
2022-12-31T06:59:45.503Z,967.51
2022-12-31T07:00:45.418Z,967.54
2022-12-31T07:01:45.488Z,967.60
2022-12-31T07:02:45.414Z,967.58
2022-12-31T07:03:45.288Z,967.51
2022-12-31T07:04:45.237Z,967.52
2022-12-31T07:05:45.191Z,967.59
2022-12-31T07:06:45.155Z,967.55
2022-12-31T07:07:45.101Z,967.48
2022-12-31T07:08:45.100Z,967.60
2022-12-31T07:09:45.016Z,967.52
2022-12-31T07:10:44.975Z,967.62
2022-12-31T07:11:44.922Z,967.56
2022-12-31T07:12:44.877Z,967.73
2022-12-31T07:13:44.840Z,967.60
2022-12-31T07:14:44.805Z,967.60
2022-12-31T07:15:44.782Z,967.64
2022-12-31T07:16:44.696Z,967.66
2022-12-31T07:17:44.685Z,967.68
2022-12-31T07:18:44.611Z,967.64
2022-12-31T07:19:44.582Z,967.65
2022-12-31T07:20:44.534Z,967.77
2022-12-31T07:21:44.480Z,967.62
2022-12-31T07:22:44.438Z,967.65
2022-12-31T07:23:44.411Z,967.66
2022-12-31T07:24:44.353Z,967.63
2022-12-31T07:25:44.303Z,967.83
2022-12-31T07:26:44.251Z,967.74
2022-12-31T07:27:44.206Z,967.76
2022-12-31T07:28:44.178Z,967.79
2022-12-31T07:29:44.126Z,967.78
2022-12-31T07:30:44.071Z,967.82
2022-12-31T07:31:44.054Z,967.89
2022-12-31T07:32:43.997Z,967.95
2022-12-31T07:33:43.942Z,968.08
2022-12-31T07:34:43.895Z,967.93
2022-12-31T07:35:43.847Z,968.01
2022-12-31T07:36:43.803Z,967.97
2022-12-31T07:37:43.790Z,967.99
2022-12-31T07:38:43.714Z,967.99
2022-12-31T07:39:43.670Z,967.98
2022-12-31T07:40:43.624Z,967.97
2022-12-31T07:41:43.587Z,967.88
2022-12-31T07:42:43.532Z,967.92
2022-12-31T07:43:43.518Z,967.97
2022-12-31T07:44:43.467Z,967.94
2022-12-31T07:45:43.401Z,968.03
2022-12-31T07:46:43.384Z,967.95
2022-12-31T07:47:43.314Z,967.99
2022-12-31T07:48:43.270Z,968.05
2022-12-31T07:49:43.248Z,968.00
2022-12-31T07:50:43.179Z,968.01
2022-12-31T07:51:43.136Z,968.09
2022-12-31T07:52:43.092Z,968.07
2022-12-31T07:53:43.050Z,968.03
2022-12-31T07:54:43.016Z,968.09
2022-12-31T07:55:42.974Z,968.08
2022-12-31T07:56:42.923Z,968.10
2022-12-31T07:57:42.866Z,968.06
2022-12-31T07:58:42.820Z,968.12
2022-12-31T07:59:42.786Z,968.09
2022-12-31T08:00:42.788Z,968.03
2022-12-31T08:01:42.859Z,968.00
2022-12-31T08:02:42.673Z,967.98
2022-12-31T08:03:42.609Z,967.96
2022-12-31T08:04:42.555Z,967.91
2022-12-31T08:05:42.519Z,967.91
2022-12-31T08:06:42.495Z,967.96
2022-12-31T08:07:42.418Z,968.01
2022-12-31T08:08:42.378Z,967.98
2022-12-31T08:09:42.331Z,967.95
2022-12-31T08:10:42.295Z,968.00
2022-12-31T08:11:42.236Z,967.94
2022-12-31T08:12:42.220Z,967.97
2022-12-31T08:13:42.151Z,967.98
2022-12-31T08:14:42.104Z,967.96
2022-12-31T08:15:42.061Z,967.94
2022-12-31T08:16:42.036Z,967.94
2022-12-31T08:17:41.976Z,968.00
2022-12-31T08:18:41.947Z,968.02
2022-12-31T08:19:41.882Z,968.02
2022-12-31T08:20:41.837Z,968.05
2022-12-31T08:21:41.797Z,968.00
2022-12-31T08:22:41.753Z,968.02
2022-12-31T08:23:41.710Z,968.10
2022-12-31T08:24:41.693Z,968.05
2022-12-31T08:25:41.615Z,968.11
2022-12-31T08:26:41.568Z,968.07
2022-12-31T08:27:41.527Z,968.15
2022-12-31T08:28:41.485Z,968.10
2022-12-31T08:29:41.441Z,968.19
2022-12-31T08:30:41.429Z,968.08
2022-12-31T08:31:41.390Z,968.13
2022-12-31T08:32:41.313Z,968.16
2022-12-31T08:33:41.256Z,968.12
2022-12-31T08:34:41.218Z,968.08
2022-12-31T08:35:41.167Z,968.11
2022-12-31T08:36:41.142Z,968.01
2022-12-31T08:37:41.081Z,968.04
2022-12-31T08:38:41.039Z,968.05
2022-12-31T08:39:40.987Z,968.05
2022-12-31T08:40:40.943Z,968.07
2022-12-31T08:41:42.942Z,968.04
2022-12-31T08:42:40.890Z,968.07
2022-12-31T08:43:40.808Z,968.05
2022-12-31T08:44:40.769Z,968.03
2022-12-31T08:45:40.760Z,967.96
2022-12-31T08:46:40.709Z,967.95
2022-12-31T08:47:40.643Z,967.94
2022-12-31T08:48:40.648Z,967.95
2022-12-31T08:49:40.569Z,968.00
2022-12-31T08:50:40.522Z,967.94
2022-12-31T08:51:40.495Z,967.96
2022-12-31T08:52:40.414Z,967.97
2022-12-31T08:53:40.370Z,968.00
2022-12-31T08:54:40.325Z,968.03
2022-12-31T08:55:40.284Z,968.02
2022-12-31T08:56:40.257Z,968.02
2022-12-31T08:57:40.197Z,968.04
2022-12-31T08:58:40.147Z,968.05
2022-12-31T08:59:40.110Z,968.09
2022-12-31T09:00:40.101Z,968.09
2022-12-31T09:01:40.098Z,968.12
2022-12-31T09:02:44.588Z,968.17
2022-12-31T09:03:39.922Z,968.11
2022-12-31T09:04:39.890Z,968.06
2022-12-31T09:05:39.838Z,968.07
2022-12-31T09:06:39.793Z,968.04
2022-12-31T09:07:39.745Z,968.05
2022-12-31T09:08:39.739Z,968.06
2022-12-31T09:09:39.680Z,968.05
2022-12-31T09:10:39.617Z,968.08
2022-12-31T09:11:39.601Z,968.12
2022-12-31T09:12:39.538Z,968.10
2022-12-31T09:13:39.487Z,968.13
2022-12-31T09:14:39.444Z,968.11
2022-12-31T09:15:39.400Z,968.11
2022-12-31T09:16:39.375Z,968.20
2022-12-31T09:17:39.322Z,968.15
2022-12-31T09:18:39.266Z,968.20
2022-12-31T09:19:39.215Z,968.18
2022-12-31T09:20:43.713Z,968.20
2022-12-31T09:21:39.144Z,968.18
2022-12-31T09:22:39.105Z,968.18
2022-12-31T09:23:39.051Z,968.19
2022-12-31T09:24:38.995Z,968.19
2022-12-31T09:25:38.964Z,968.23
2022-12-31T09:26:38.911Z,968.20
2022-12-31T09:27:38.868Z,968.16
2022-12-31T09:28:38.890Z,968.20
2022-12-31T09:29:38.793Z,968.21
2022-12-31T09:30:38.736Z,968.24
2022-12-31T09:31:38.728Z,968.26
2022-12-31T09:32:38.645Z,968.32
2022-12-31T09:33:38.605Z,968.29
2022-12-31T09:34:38.579Z,968.32
2022-12-31T09:35:38.527Z,968.34
2022-12-31T09:36:38.471Z,968.30
2022-12-31T09:37:38.433Z,968.25
2022-12-31T09:38:38.391Z,968.26
2022-12-31T09:39:38.358Z,968.29
2022-12-31T09:40:38.324Z,968.32
2022-12-31T09:41:38.254Z,968.32
2022-12-31T09:42:38.208Z,968.30
2022-12-31T09:43:38.171Z,968.29
2022-12-31T09:44:38.126Z,968.30
2022-12-31T09:45:38.109Z,968.33
2022-12-31T09:46:38.061Z,968.29
2022-12-31T09:47:37.995Z,968.34
2022-12-31T09:48:37.949Z,968.33
2022-12-31T09:49:37.922Z,968.39
2022-12-31T09:50:37.865Z,968.39
2022-12-31T09:51:37.831Z,968.39
2022-12-31T09:52:37.791Z,968.38
2022-12-31T09:53:37.732Z,968.41
2022-12-31T09:54:37.691Z,968.47
2022-12-31T09:55:37.649Z,968.45
2022-12-31T09:56:37.605Z,968.46
2022-12-31T09:57:37.564Z,968.45
2022-12-31T09:58:37.535Z,968.44
2022-12-31T09:59:37.471Z,968.46
2022-12-31T10:00:37.456Z,968.47
2022-12-31T10:01:37.477Z,968.45
2022-12-31T10:02:37.518Z,968.46
2022-12-31T10:03:37.305Z,968.45
2022-12-31T10:04:37.263Z,968.43
2022-12-31T10:05:37.220Z,968.41
2022-12-31T10:06:37.212Z,968.33
2022-12-31T10:07:37.136Z,968.37
2022-12-31T10:08:37.095Z,968.40
2022-12-31T10:09:37.060Z,968.38
2022-12-31T10:10:37.016Z,968.42
2022-12-31T10:11:36.978Z,968.37
2022-12-31T10:12:36.979Z,968.38
2022-12-31T10:13:36.896Z,968.36
2022-12-31T10:14:38.119Z,968.39
2022-12-31T10:15:36.815Z,968.36
2022-12-31T10:16:36.801Z,968.29
2022-12-31T10:17:36.729Z,968.33
2022-12-31T10:18:36.706Z,968.34
2022-12-31T10:19:36.675Z,968.31
2022-12-31T10:20:41.546Z,968.33
2022-12-31T10:21:36.586Z,968.31
2022-12-31T10:22:36.538Z,968.32
2022-12-31T10:23:36.500Z,968.29
2022-12-31T10:24:36.457Z,968.30
2022-12-31T10:25:38.951Z,968.32
2022-12-31T10:26:36.379Z,968.31
2022-12-31T10:27:36.342Z,968.25
2022-12-31T10:28:36.299Z,968.23
2022-12-31T10:29:36.275Z,968.23
2022-12-31T10:30:36.253Z,968.23
2022-12-31T10:31:36.196Z,968.18
2022-12-31T10:32:36.146Z,968.19
2022-12-31T10:33:36.105Z,968.15
2022-12-31T10:34:36.070Z,968.18
2022-12-31T10:35:36.041Z,968.15
2022-12-31T10:36:36.009Z,968.13
2022-12-31T10:37:35.967Z,968.12
2022-12-31T10:38:35.918Z,968.06
2022-12-31T10:39:35.887Z,968.08
2022-12-31T10:40:35.846Z,968.06
2022-12-31T10:41:35.824Z,968.03
2022-12-31T10:42:35.772Z,968.02
2022-12-31T10:43:35.725Z,967.88
2022-12-31T10:44:35.695Z,967.86
2022-12-31T10:45:35.646Z,967.80
2022-12-31T10:46:35.695Z,967.75
2022-12-31T10:47:35.590Z,967.78
2022-12-31T10:48:35.588Z,967.73
2022-12-31T10:49:35.495Z,967.79
2022-12-31T10:50:35.461Z,967.70
2022-12-31T10:51:35.425Z,967.71
2022-12-31T10:52:41.359Z,967.68
2022-12-31T10:53:35.365Z,967.67
2022-12-31T10:54:35.307Z,967.66
2022-12-31T10:55:35.265Z,967.70
2022-12-31T10:56:35.227Z,967.74
2022-12-31T10:57:35.187Z,967.69
2022-12-31T10:58:35.172Z,967.66
2022-12-31T10:59:35.111Z,967.63
2022-12-31T11:00:35.077Z,967.65
2022-12-31T11:01:35.147Z,967.61
2022-12-31T11:02:35.087Z,967.59
2022-12-31T11:03:35.080Z,967.56
2022-12-31T11:04:34.923Z,967.57
2022-12-31T11:05:34.878Z,967.52
2022-12-31T11:06:34.841Z,967.52
2022-12-31T11:07:34.801Z,967.47
2022-12-31T11:08:34.766Z,967.50
2022-12-31T11:09:34.972Z,967.47
2022-12-31T11:10:34.689Z,967.48
2022-12-31T11:11:34.656Z,967.41
2022-12-31T11:12:34.613Z,967.42
2022-12-31T11:13:34.576Z,967.40
2022-12-31T11:14:34.548Z,967.33
2022-12-31T11:15:34.628Z,967.40
2022-12-31T11:16:34.462Z,967.33
2022-12-31T11:17:34.436Z,967.36
2022-12-31T11:18:34.389Z,967.37
2022-12-31T11:19:34.370Z,967.35
2022-12-31T11:20:34.311Z,967.32
2022-12-31T11:21:39.399Z,967.27
2022-12-31T11:22:34.240Z,967.35
2022-12-31T11:23:34.193Z,967.31
2022-12-31T11:24:34.159Z,967.32
2022-12-31T11:25:34.121Z,967.36
2022-12-31T11:26:34.078Z,967.28
2022-12-31T11:27:34.050Z,967.27
2022-12-31T11:28:34.002Z,967.17
2022-12-31T11:29:33.979Z,967.08
2022-12-31T11:30:33.923Z,967.16
2022-12-31T11:31:34.027Z,967.13
2022-12-31T11:32:33.869Z,967.17
2022-12-31T11:33:33.803Z,967.15
2022-12-31T11:34:33.767Z,967.25
2022-12-31T11:35:33.835Z,967.17
2022-12-31T11:36:33.688Z,967.16
2022-12-31T11:37:33.659Z,967.22
2022-12-31T11:38:33.609Z,967.17
2022-12-31T11:39:33.569Z,967.15
2022-12-31T11:40:33.526Z,967.13
2022-12-31T11:41:33.509Z,967.16
2022-12-31T11:42:33.450Z,967.10
2022-12-31T11:43:33.408Z,967.08
2022-12-31T11:44:33.374Z,967.04
2022-12-31T11:45:33.327Z,967.06
2022-12-31T11:46:33.335Z,967.08
2022-12-31T11:47:33.278Z,967.01
2022-12-31T11:48:33.238Z,967.16
2022-12-31T11:49:33.169Z,967.04
2022-12-31T11:50:33.130Z,966.96
2022-12-31T11:51:33.090Z,967.02
2022-12-31T11:52:33.050Z,966.92
2022-12-31T11:53:33.037Z,966.91
2022-12-31T11:54:32.973Z,966.94
2022-12-31T11:55:32.929Z,966.92
2022-12-31T11:56:32.901Z,966.89
2022-12-31T11:57:32.848Z,966.86
2022-12-31T11:58:32.808Z,966.87
2022-12-31T11:59:32.794Z,966.92
2022-12-31T12:00:32.728Z,966.84
2022-12-31T12:01:32.753Z,966.88
2022-12-31T12:02:32.687Z,966.84
2022-12-31T12:03:32.635Z,966.84
2022-12-31T12:04:32.568Z,966.89
2022-12-31T12:05:32.579Z,966.77
2022-12-31T12:06:32.486Z,966.81
2022-12-31T12:07:32.443Z,966.72
2022-12-31T12:08:32.408Z,966.80
2022-12-31T12:09:32.383Z,966.75
2022-12-31T12:10:36.445Z,966.74
2022-12-31T12:11:32.315Z,966.81
2022-12-31T12:12:32.247Z,966.68
2022-12-31T12:13:32.199Z,966.69
2022-12-31T12:14:32.165Z,966.72
2022-12-31T12:15:32.117Z,966.72
2022-12-31T12:16:32.140Z,966.67
2022-12-31T12:17:32.092Z,966.68
2022-12-31T12:18:39.744Z,966.70
2022-12-31T12:19:32.119Z,966.67
2022-12-31T12:20:31.920Z,966.66
2022-12-31T12:21:32.131Z,966.66
2022-12-31T12:22:32.145Z,966.65
2022-12-31T12:23:31.821Z,966.67
2022-12-31T12:24:31.948Z,966.71
2022-12-31T12:25:31.707Z,966.71
2022-12-31T12:26:31.972Z,966.71
2022-12-31T12:27:31.629Z,966.66
2022-12-31T12:28:31.595Z,966.76
2022-12-31T12:29:31.982Z,966.76
2022-12-31T12:30:31.529Z,966.62
2022-12-31T12:31:31.541Z,966.68